Terminal Aerodrome Forecast
Issued by NWS

Home | Current Version | Previous Version | Text Only | Print | Product List | Glossary Off
Versions: 1 2 3 4 5 6 7 8 9 10 11 12 13 14 15 16 17

000
FTUS43 KIWX 301120
TAFSBN
TAF
KSBN 301120Z 3012/0112 14005KT 1SM BR VCSH OVC002
     FM301400 29006KT P6SM VCSH OVC010
     FM301600 31010KT P6SM SCT015 BKN035
     FM010100 32005KT P6SM BKN250
     FM010900 33005KT P6SM BKN020=

USA.gov is the U.S. government's official web portal to all federal, state and local government web resources and services.